sensor_id;sensor_type;location;lat;lon;timestamp;pressure;altitude;pressure_sealevel;temperature;humidity
75891;BME280;64571;47.512;19.054;2023-04-24T00:01:50;99651.22;;;16.05;44.24
75891;BME280;64571;47.512;19.054;2023-04-24T00:04:54;99651.00;;;15.98;46.43
75891;BME280;64571;47.512;19.054;2023-04-24T00:07:56;99651.72;;;15.94;45.21
75891;BME280;64571;47.512;19.054;2023-04-24T00:10:59;99640.50;;;15.94;44.90
75891;BME280;64571;47.512;19.054;2023-04-24T00:14:02;99638.41;;;16.04;44.64
75891;BME280;64571;47.512;19.054;2023-04-24T00:17:05;99658.09;;;16.19;44.56
75891;BME280;64571;47.512;19.054;2023-04-24T00:20:07;99643.37;;;16.10;45.80
75891;BME280;64571;47.512;19.054;2023-04-24T00:23:10;99654.28;;;16.00;46.46
75891;BME280;64571;47.512;19.054;2023-04-24T00:26:13;99669.91;;;16.01;48.53
75891;BME280;64571;47.512;19.054;2023-04-24T00:29:15;99666.56;;;15.95;48.49
75891;BME280;64571;47.512;19.054;2023-04-24T00:32:18;99656.16;;;15.71;48.86
75891;BME280;64571;47.512;19.054;2023-04-24T00:35:23;99666.09;;;15.81;48.73
75891;BME280;64571;47.512;19.054;2023-04-24T00:38:25;99639.72;;;15.69;47.71
75891;BME280;64571;47.512;19.054;2023-04-24T00:41:28;99640.03;;;15.80;47.24
75891;BME280;64571;47.512;19.054;2023-04-24T00:44:32;99648.69;;;16.00;46.29
75891;BME280;64571;47.512;19.054;2023-04-24T00:47:36;99626.72;;;15.89;45.97
75891;BME280;64571;47.512;19.054;2023-04-24T00:50:39;99636.06;;;15.93;45.85
75891;BME280;64571;47.512;19.054;2023-04-24T00:53:41;99652.19;;;15.97;45.94
75891;BME280;64571;47.512;19.054;2023-04-24T00:56:44;99643.09;;;15.87;46.02
75891;BME280;64571;47.512;19.054;2023-04-24T00:59:47;99621.41;;;15.72;46.09
75891;BME280;64571;47.512;19.054;2023-04-24T01:02:50;99634.44;;;15.80;46.16
75891;BME280;64571;47.512;19.054;2023-04-24T01:05:54;99638.78;;;15.78;46.28
75891;BME280;64571;47.512;19.054;2023-04-24T01:08:58;99643.00;;;15.72;46.47
75891;BME280;64571;47.512;19.054;2023-04-24T01:12:04;99627.56;;;15.65;46.44
75891;BME280;64571;47.512;19.054;2023-04-24T01:15:08;99644.63;;;15.73;46.43
75891;BME280;64571;47.512;19.054;2023-04-24T01:18:11;99640.66;;;15.74;46.51
75891;BME280;64571;47.512;19.054;2023-04-24T01:21:15;99628.59;;;15.61;46.65
75891;BME280;64571;47.512;19.054;2023-04-24T01:24:19;99621.00;;;15.61;46.68
75891;BME280;64571;47.512;19.054;2023-04-24T01:27:21;99618.09;;;15.45;47.25
75891;BME280;64571;47.512;19.054;2023-04-24T01:30:25;99619.37;;;15.48;47.16
75891;BME280;64571;47.512;19.054;2023-04-24T01:33:27;99612.97;;;15.48;47.29
75891;BME280;64571;47.512;19.054;2023-04-24T01:36:31;99632.56;;;15.48;47.66
75891;BME280;64571;47.512;19.054;2023-04-24T01:39:35;99627.06;;;15.39;47.92
75891;BME280;64571;47.512;19.054;2023-04-24T01:42:38;99612.03;;;15.43;47.76
75891;BME280;64571;47.512;19.054;2023-04-24T01:45:42;99591.84;;;15.38;47.81
75891;BME280;64571;47.512;19.054;2023-04-24T01:48:45;99613.44;;;15.50;47.95
75891;BME280;64571;47.512;19.054;2023-04-24T01:51:47;99602.22;;;15.37;48.48
75891;BME280;64571;47.512;19.054;2023-04-24T01:54:50;99581.22;;;15.19;49.88
75891;BME280;64571;47.512;19.054;2023-04-24T01:57:55;99588.94;;;15.10;53.90
75891;BME280;64571;47.512;19.054;2023-04-24T02:00:58;99580.47;;;14.85;56.49
75891;BME280;64571;47.512;19.054;2023-04-24T02:04:02;99588.25;;;14.67;56.98
75891;BME280;64571;47.512;19.054;2023-04-24T02:07:04;99585.44;;;14.67;57.14
75891;BME280;64571;47.512;19.054;2023-04-24T02:10:07;99581.59;;;14.60;56.60
75891;BME280;64571;47.512;19.054;2023-04-24T02:13:11;99571.22;;;14.60;56.60
75891;BME280;64571;47.512;19.054;2023-04-24T02:16:13;99556.22;;;14.44;57.33
75891;BME280;64571;47.512;19.054;2023-04-24T02:19:16;99546.38;;;14.26;57.23
75891;BME280;64571;47.512;19.054;2023-04-24T02:22:18;99545.63;;;14.37;60.56
75891;BME280;64571;47.512;19.054;2023-04-24T02:25:21;99559.91;;;14.57;60.35
75891;BME280;64571;47.512;19.054;2023-04-24T02:28:24;99559.94;;;14.69;58.74
75891;BME280;64571;47.512;19.054;2023-04-24T02:31:26;99552.50;;;14.73;58.23
75891;BME280;64571;47.512;19.054;2023-04-24T02:34:29;99552.97;;;14.75;57.13
75891;BME280;64571;47.512;19.054;2023-04-24T02:37:34;99532.09;;;14.60;57.90
75891;BME280;64571;47.512;19.054;2023-04-24T02:40:36;99528.59;;;14.63;58.79
75891;BME280;64571;47.512;19.054;2023-04-24T02:43:39;99547.34;;;14.63;58.53
75891;BME280;64571;47.512;19.054;2023-04-24T02:46:42;99552.25;;;14.66;57.82
75891;BME280;64571;47.512;19.054;2023-04-24T02:49:44;99545.94;;;14.57;59.85
75891;BME280;64571;47.512;19.054;2023-04-24T02:52:47;99533.50;;;14.33;59.62
75891;BME280;64571;47.512;19.054;2023-04-24T02:55:50;99545.34;;;14.51;60.07
75891;BME280;64571;47.512;19.054;2023-04-24T02:58:52;99542.44;;;14.60;59.25
75891;BME280;64571;47.512;19.054;2023-04-24T03:01:55;99544.06;;;14.61;63.77
75891;BME280;64571;47.512;19.054;2023-04-24T03:04:57;99538.34;;;14.57;63.00
75891;BME280;64571;47.512;19.054;2023-04-24T03:08:00;99540.56;;;14.52;62.23
75891;BME280;64571;47.512;19.054;2023-04-24T03:11:03;99520.91;;;14.39;61.80
75891;BME280;64571;47.512;19.054;2023-04-24T03:14:05;99534.97;;;14.52;61.55
75891;BME280;64571;47.512;19.054;2023-04-24T03:17:08;99526.34;;;14.57;61.06
75891;BME280;64571;47.512;19.054;2023-04-24T03:20:10;99523.47;;;14.65;61.46
75891;BME280;64571;47.512;19.054;2023-04-24T03:23:13;99530.00;;;14.69;61.93
75891;BME280;64571;47.512;19.054;2023-04-24T03:26:16;99533.66;;;14.49;63.68
75891;BME280;64571;47.512;19.054;2023-04-24T03:29:20;99534.56;;;14.41;64.19
75891;BME280;64571;47.512;19.054;2023-04-24T03:32:23;99521.63;;;14.36;64.93
75891;BME280;64571;47.512;19.054;2023-04-24T03:35:26;99524.75;;;14.35;64.36
75891;BME280;64571;47.512;19.054;2023-04-24T03:38:29;99533.03;;;14.43;64.10
75891;BME280;64571;47.512;19.054;2023-04-24T03:41:32;99529.16;;;14.36;64.36
75891;BME280;64571;47.512;19.054;2023-04-24T03:44:36;99516.06;;;14.15;65.05
75891;BME280;64571;47.512;19.054;2023-04-24T03:47:39;99512.47;;;14.15;65.13
75891;BME280;64571;47.512;19.054;2023-04-24T03:50:42;99517.16;;;14.23;65.12
75891;BME280;64571;47.512;19.054;2023-04-24T03:53:45;99520.56;;;14.29;65.37
75891;BME280;64571;47.512;19.054;2023-04-24T03:56:48;99526.31;;;14.11;65.25
75891;BME280;64571;47.512;19.054;2023-04-24T03:59:51;99531.31;;;14.18;65.26
75891;BME280;64571;47.512;19.054;2023-04-24T04:02:55;99520.44;;;14.04;66.27
75891;BME280;64571;47.512;19.054;2023-04-24T04:05:58;99527.81;;;14.09;66.93
75891;BME280;64571;47.512;19.054;2023-04-24T04:09:00;99517.72;;;13.96;67.47
75891;BME280;64571;47.512;19.054;2023-04-24T04:12:04;99528.72;;;14.01;67.84
75891;BME280;64571;47.512;19.054;2023-04-24T04:15:07;99501.31;;;13.94;68.30
75891;BME280;64571;47.512;19.054;2023-04-24T04:18:10;99530.41;;;14.14;67.19
75891;BME280;64571;47.512;19.054;2023-04-24T04:21:12;99517.03;;;14.19;65.57
75891;BME280;64571;47.512;19.054;2023-04-24T04:24:15;99531.13;;;14.23;67.22
75891;BME280;64571;47.512;19.054;2023-04-24T04:27:18;99535.16;;;14.13;68.11
75891;BME280;64571;47.512;19.054;2023-04-24T04:30:21;99536.16;;;13.97;68.21
75891;BME280;64571;47.512;19.054;2023-04-24T04:33:24;99536.16;;;13.97;67.85
75891;BME280;64571;47.512;19.054;2023-04-24T04:36:28;99522.78;;;14.02;67.53
75891;BME280;64571;47.512;19.054;2023-04-24T04:39:32;99523.88;;;13.89;67.94
75891;BME280;64571;47.512;19.054;2023-04-24T04:42:35;99531.41;;;14.09;66.63
75891;BME280;64571;47.512;19.054;2023-04-24T04:45:37;99521.66;;;14.15;67.04
75891;BME280;64571;47.512;19.054;2023-04-24T04:48:43;99513.72;;;14.05;65.55
75891;BME280;64571;47.512;19.054;2023-04-24T04:51:45;99527.09;;;14.33;65.84
75891;BME280;64571;47.512;19.054;2023-04-24T04:54:50;99525.44;;;14.32;65.18
75891;BME280;64571;47.512;19.054;2023-04-24T04:57:52;99498.63;;;14.18;66.09
75891;BME280;64571;47.512;19.054;2023-04-24T05:00:55;99511.94;;;14.34;65.37
75891;BME280;64571;47.512;19.054;2023-04-24T05:04:00;99492.19;;;14.18;65.50
75891;BME280;64571;47.512;19.054;2023-04-24T05:07:03;99504.22;;;14.18;65.78
75891;BME280;64571;47.512;19.054;2023-04-24T05:10:06;99497.69;;;14.27;65.21
75891;BME280;64571;47.512;19.054;2023-04-24T05:13:09;99508.56;;;14.28;64.91
75891;BME280;64571;47.512;19.054;2023-04-24T05:16:11;99510.50;;;14.49;64.91
75891;BME280;64571;47.512;19.054;2023-04-24T05:19:14;99497.19;;;14.46;64.14
75891;BME280;64571;47.512;19.054;2023-04-24T05:22:19;99503.53;;;14.55;63.79
75891;BME280;64571;47.512;19.054;2023-04-24T05:25:23;99507.38;;;14.62;64.41
75891;BME280;64571;47.512;19.054;2023-04-24T05:28:26;99504.59;;;14.75;63.76
75891;BME280;64571;47.512;19.054;2023-04-24T05:31:32;99509.03;;;14.88;63.65
75891;BME280;64571;47.512;19.054;2023-04-24T05:34:35;99496.09;;;14.83;63.04
75891;BME280;64571;47.512;19.054;2023-04-24T05:37:38;99507.63;;;14.94;63.88
75891;BME280;64571;47.512;19.054;2023-04-24T05:40:41;99494.47;;;14.82;64.27
75891;BME280;64571;47.512;19.054;2023-04-24T05:43:43;99510.31;;;14.78;64.87
75891;BME280;64571;47.512;19.054;2023-04-24T05:46:46;99504.00;;;14.81;64.12
75891;BME280;64571;47.512;19.054;2023-04-24T05:49:49;99525.34;;;14.98;64.12
75891;BME280;64571;47.512;19.054;2023-04-24T05:52:51;99520.91;;;14.85;63.34
75891;BME280;64571;47.512;19.054;2023-04-24T05:55:55;99520.31;;;14.67;63.36
75891;BME280;64571;47.512;19.054;2023-04-24T05:58:57;99518.25;;;15.01;62.85
75891;BME280;64571;47.512;19.054;2023-04-24T06:02:00;99517.09;;;15.02;62.06
75891;BME280;64571;47.512;19.054;2023-04-24T06:05:03;99516.62;;;14.87;62.78
75891;BME280;64571;47.512;19.054;2023-04-24T06:08:06;99518.00;;;14.93;62.96
75891;BME280;64571;47.512;19.054;2023-04-24T06:11:10;99516.84;;;15.07;62.50
75891;BME280;64571;47.512;19.054;2023-04-24T06:14:13;99520.59;;;15.23;62.21
75891;BME280;64571;47.512;19.054;2023-04-24T06:17:19;99514.63;;;15.37;61.20
75891;BME280;64571;47.512;19.054;2023-04-24T06:20:22;99533.38;;;15.49;61.11
75891;BME280;64571;47.512;19.054;2023-04-24T06:23:25;99535.09;;;15.78;60.35
75891;BME280;64571;47.512;19.054;2023-04-24T06:26:28;99530.44;;;15.57;60.80
75891;BME280;64571;47.512;19.054;2023-04-24T06:29:31;99514.22;;;15.63;60.48
75891;BME280;64571;47.512;19.054;2023-04-24T06:32:34;99518.31;;;15.53;61.39
75891;BME280;64571;47.512;19.054;2023-04-24T06:35:36;99523.59;;;15.42;61.52
75891;BME280;64571;47.512;19.054;2023-04-24T06:38:40;99524.53;;;14.98;64.23
75891;BME280;64571;47.512;19.054;2023-04-24T06:41:42;99526.06;;;14.95;65.22
75891;BME280;64571;47.512;19.054;2023-04-24T06:44:51;99527.69;;;14.96;66.01
75891;BME280;64571;47.512;19.054;2023-04-24T06:47:53;99515.22;;;15.06;66.42
75891;BME280;64571;47.512;19.054;2023-04-24T06:50:56;99509.62;;;14.93;66.26
75891;BME280;64571;47.512;19.054;2023-04-24T06:53:59;99517.53;;;15.04;66.67
75891;BME280;64571;47.512;19.054;2023-04-24T06:57:01;99507.28;;;14.96;65.70
75891;BME280;64571;47.512;19.054;2023-04-24T07:00:06;99519.06;;;15.13;65.76
75891;BME280;64571;47.512;19.054;2023-04-24T07:03:09;99500.06;;;15.19;65.48
75891;BME280;64571;47.512;19.054;2023-04-24T07:06:12;99513.34;;;14.85;66.39
75891;BME280;64571;47.512;19.054;2023-04-24T07:09:15;99507.38;;;14.75;66.31
75891;BME280;64571;47.512;19.054;2023-04-24T07:12:21;99527.56;;;14.92;66.12
75891;BME280;64571;47.512;19.054;2023-04-24T07:15:23;99524.78;;;15.05;66.00
75891;BME280;64571;47.512;19.054;2023-04-24T07:18:26;99518.97;;;15.22;65.39
75891;BME280;64571;47.512;19.054;2023-04-24T07:21:29;99525.69;;;15.33;65.56
75891;BME280;64571;47.512;19.054;2023-04-24T07:24:33;99522.22;;;15.24;65.06
75891;BME280;64571;47.512;19.054;2023-04-24T07:27:36;99528.75;;;15.28;64.95
75891;BME280;64571;47.512;19.054;2023-04-24T07:30:39;99530.38;;;15.29;65.15
75891;BME280;64571;47.512;19.054;2023-04-24T07:33:41;99526.94;;;15.48;64.50
75891;BME280;64571;47.512;19.054;2023-04-24T07:36:44;99524.50;;;15.47;64.58
75891;BME280;64571;47.512;19.054;2023-04-24T07:39:46;99524.62;;;15.38;64.89
75891;BME280;64571;47.512;19.054;2023-04-24T07:42:49;99518.69;;;15.39;64.47
75891;BME280;64571;47.512;19.054;2023-04-24T07:45:51;99495.44;;;15.51;64.56
75891;BME280;64571;47.512;19.054;2023-04-24T07:48:54;99502.34;;;15.54;64.84
75891;BME280;64571;47.512;19.054;2023-04-24T07:52:13;99496.75;;;15.41;64.90
75891;BME280;64571;47.512;19.054;2023-04-24T07:55:16;99520.87;;;15.70;65.04
75891;BME280;64571;47.512;19.054;2023-04-24T07:58:19;99518.28;;;15.78;64.48
75891;BME280;64571;47.512;19.054;2023-04-24T08:01:22;99499.31;;;15.99;63.97
75891;BME280;64571;47.512;19.054;2023-04-24T08:04:24;99510.00;;;16.09;64.11
75891;BME280;64571;47.512;19.054;2023-04-24T08:07:27;99523.16;;;16.21;64.01
75891;BME280;64571;47.512;19.054;2023-04-24T08:10:30;99526.75;;;15.93;65.01
75891;BME280;64571;47.512;19.054;2023-04-24T08:13:32;99519.78;;;15.87;65.43
75891;BME280;64571;47.512;19.054;2023-04-24T08:16:35;99496.91;;;15.85;66.03
75891;BME280;64571;47.512;19.054;2023-04-24T08:19:37;99498.97;;;15.88;65.92
75891;BME280;64571;47.512;19.054;2023-04-24T08:22:41;99498.13;;;15.72;66.52
75891;BME280;64571;47.512;19.054;2023-04-24T08:25:43;99512.28;;;15.91;66.00
75891;BME280;64571;47.512;19.054;2023-04-24T08:28:46;99517.19;;;15.94;65.71
75891;BME280;64571;47.512;19.054;2023-04-24T08:31:49;99514.03;;;15.96;64.96
75891;BME280;64571;47.512;19.054;2023-04-24T08:34:52;99517.91;;;15.91;64.29
75891;BME280;64571;47.512;19.054;2023-04-24T08:37:54;99520.41;;;15.81;64.91
75891;BME280;64571;47.512;19.054;2023-04-24T08:40:59;99524.53;;;15.99;64.21
75891;BME280;64571;47.512;19.054;2023-04-24T08:44:02;99525.59;;;16.23;63.45
75891;BME280;64571;47.512;19.054;2023-04-24T08:47:04;99495.34;;;16.16;63.43
75891;BME280;64571;47.512;19.054;2023-04-24T08:50:08;99516.34;;;16.50;62.99
75891;BME280;64571;47.512;19.054;2023-04-24T08:53:12;99496.81;;;16.54;62.56
75891;BME280;64571;47.512;19.054;2023-04-24T08:56:14;99502.72;;;16.80;61.45
75891;BME280;64571;47.512;19.054;2023-04-24T08:59:18;99509.59;;;16.83;61.69
75891;BME280;64571;47.512;19.054;2023-04-24T09:02:23;99496.28;;;16.95;60.65
75891;BME280;64571;47.512;19.054;2023-04-24T09:05:27;99495.53;;;17.14;59.61
75891;BME280;64571;47.512;19.054;2023-04-24T09:08:30;99490.87;;;17.03;59.54
75891;BME280;64571;47.512;19.054;2023-04-24T09:11:34;99496.22;;;17.43;58.88
75891;BME280;64571;47.512;19.054;2023-04-24T09:14:36;99487.31;;;17.57;58.54
75891;BME280;64571;47.512;19.054;2023-04-24T09:17:42;99486.41;;;17.72;57.80
75891;BME280;64571;47.512;19.054;2023-04-24T09:21:19;99491.78;;;17.96;56.92
75891;BME280;64571;47.512;19.054;2023-04-24T09:24:22;99488.75;;;18.25;55.54
75891;BME280;64571;47.512;19.054;2023-04-24T09:27:28;99493.69;;;18.74;54.12
75891;BME280;64571;47.512;19.054;2023-04-24T09:30:30;99488.22;;;19.07;53.26
75891;BME280;64571;47.512;19.054;2023-04-24T09:33:34;99477.50;;;18.47;54.67
75891;BME280;64571;47.512;19.054;2023-04-24T09:36:43;99486.94;;;18.59;53.53
75891;BME280;64571;47.512;19.054;2023-04-24T09:39:45;99472.06;;;18.35;54.21
75891;BME280;64571;47.512;19.054;2023-04-24T09:43:11;99459.44;;;18.48;54.36
75891;BME280;64571;47.512;19.054;2023-04-24T09:46:13;99454.69;;;18.53;54.71
75891;BME280;64571;47.512;19.054;2023-04-24T09:49:22;99466.19;;;18.90;53.42
75891;BME280;64571;47.512;19.054;2023-04-24T09:52:24;99468.91;;;18.83;52.38
75891;BME280;64571;47.512;19.054;2023-04-24T09:55:27;99453.41;;;19.22;51.69
75891;BME280;64571;47.512;19.054;2023-04-24T09:58:30;99436.81;;;18.87;51.32
75891;BME280;64571;47.512;19.054;2023-04-24T10:01:33;99437.87;;;18.79;51.31
75891;BME280;64571;47.512;19.054;2023-04-24T10:04:36;99446.06;;;19.14;51.05
75891;BME280;64571;47.512;19.054;2023-04-24T10:07:38;99457.63;;;19.06;51.32
75891;BME280;64571;47.512;19.054;2023-04-24T10:10:43;99450.56;;;19.19;51.16
75891;BME280;64571;47.512;19.054;2023-04-24T10:13:45;99452.87;;;19.13;51.36
75891;BME280;64571;47.512;19.054;2023-04-24T10:16:50;99450.25;;;18.97;51.14
75891;BME280;64571;47.512;19.054;2023-04-24T10:19:53;99444.16;;;19.22;51.23
75891;BME280;64571;47.512;19.054;2023-04-24T10:22:58;99452.25;;;19.54;50.57
75891;BME280;64571;47.512;19.054;2023-04-24T10:26:01;99437.50;;;19.60;50.88
75891;BME280;64571;47.512;19.054;2023-04-24T10:29:05;99444.81;;;19.38;50.72
75891;BME280;64571;47.512;19.054;2023-04-24T10:32:11;99430.59;;;19.31;50.43
75891;BME280;64571;47.512;19.054;2023-04-24T10:35:15;99438.19;;;19.27;50.06
75891;BME280;64571;47.512;19.054;2023-04-24T10:38:25;99442.84;;;19.42;49.73
75891;BME280;64571;47.512;19.054;2023-04-24T10:41:30;99421.94;;;19.43;49.25
75891;BME280;64571;47.512;19.054;2023-04-24T10:44:36;99436.78;;;19.40;49.18
75891;BME280;64571;47.512;19.054;2023-04-24T10:47:40;99448.09;;;19.14;50.00
75891;BME280;64571;47.512;19.054;2023-04-24T10:50:53;99435.38;;;19.27;50.50
75891;BME280;64571;47.512;19.054;2023-04-24T10:53:57;99443.47;;;19.29;51.09
75891;BME280;64571;47.512;19.054;2023-04-24T11:00:32;99439.41;;;19.26;51.67
75891;BME280;64571;47.512;19.054;2023-04-24T11:03:35;99434.19;;;19.58;50.87
75891;BME280;64571;47.512;19.054;2023-04-24T11:06:40;99423.34;;;19.30;51.90
75891;BME280;64571;47.512;19.054;2023-04-24T11:09:42;99425.84;;;19.09;52.95
75891;BME280;64571;47.512;19.054;2023-04-24T11:12:46;99429.84;;;19.34;52.93
75891;BME280;64571;47.512;19.054;2023-04-24T11:16:14;99431.38;;;19.28;52.80
75891;BME280;64571;47.512;19.054;2023-04-24T11:19:24;99423.47;;;19.11;52.48
75891;BME280;64571;47.512;19.054;2023-04-24T11:22:28;99407.41;;;19.41;51.52
75891;BME280;64571;47.512;19.054;2023-04-24T11:25:33;99425.38;;;19.60;51.59
75891;BME280;64571;47.512;19.054;2023-04-24T11:28:44;99430.16;;;19.86;51.18
75891;BME280;64571;47.512;19.054;2023-04-24T11:31:47;99402.97;;;19.70;50.45
75891;BME280;64571;47.512;19.054;2023-04-24T11:38:19;99409.66;;;20.30;49.26
75891;BME280;64571;47.512;19.054;2023-04-24T11:41:26;99396.00;;;20.35;49.02
75891;BME280;64571;47.512;19.054;2023-04-24T11:44:31;99399.50;;;20.21;49.27
75891;BME280;64571;47.512;19.054;2023-04-24T11:47:34;99405.31;;;20.36;49.47
75891;BME280;64571;47.512;19.054;2023-04-24T11:50:37;99405.19;;;20.25;49.90
75891;BME280;64571;47.512;19.054;2023-04-24T11:53:39;99412.41;;;19.85;50.91
75891;BME280;64571;47.512;19.054;2023-04-24T11:56:47;99396.28;;;20.19;50.13
75891;BME280;64571;47.512;19.054;2023-04-24T11:59:50;99402.56;;;20.46;49.86
75891;BME280;64571;47.512;19.054;2023-04-24T12:03:03;99392.00;;;20.36;50.18
75891;BME280;64571;47.512;19.054;2023-04-24T12:06:10;99390.03;;;20.03;50.99
75891;BME280;64571;47.512;19.054;2023-04-24T12:09:12;99377.91;;;19.95;51.08
75891;BME280;64571;47.512;19.054;2023-04-24T12:12:20;99359.06;;;19.69;51.64
75891;BME280;64571;47.512;19.054;2023-04-24T12:15:22;99361.75;;;19.59;52.11
75891;BME280;64571;47.512;19.054;2023-04-24T12:18:25;99372.81;;;19.44;52.87
75891;BME280;64571;47.512;19.054;2023-04-24T12:21:28;99365.03;;;19.34;53.55
75891;BME280;64571;47.512;19.054;2023-04-24T12:24:32;99359.00;;;19.32;53.77
75891;BME280;64571;47.512;19.054;2023-04-24T12:27:35;99356.62;;;19.38;53.72
75891;BME280;64571;47.512;19.054;2023-04-24T12:30:47;99355.50;;;19.12;54.76
75891;BME280;64571;47.512;19.054;2023-04-24T12:33:51;99348.16;;;18.78;55.32
75891;BME280;64571;47.512;19.054;2023-04-24T12:36:53;99350.38;;;18.91;55.00
75891;BME280;64571;47.512;19.054;2023-04-24T12:40:04;99345.31;;;18.78;56.74
75891;BME280;64571;47.512;19.054;2023-04-24T12:43:18;99338.87;;;18.77;55.92
75891;BME280;64571;47.512;19.054;2023-04-24T12:46:20;99341.91;;;18.65;55.98
75891;BME280;64571;47.512;19.054;2023-04-24T12:49:24;99330.91;;;18.79;55.84
75891;BME280;64571;47.512;19.054;2023-04-24T12:52:28;99320.59;;;18.90;55.71
75891;BME280;64571;47.512;19.054;2023-04-24T12:55:31;99310.72;;;18.77;56.43
75891;BME280;64571;47.512;19.054;2023-04-24T12:58:33;99327.59;;;18.74;57.22
75891;BME280;64571;47.512;19.054;2023-04-24T13:01:36;99309.97;;;18.54;57.48
75891;BME280;64571;47.512;19.054;2023-04-24T13:04:38;99325.78;;;18.62;58.04
75891;BME280;64571;47.512;19.054;2023-04-24T13:07:41;99334.53;;;18.57;58.57
75891;BME280;64571;47.512;19.054;2023-04-24T13:10:44;99311.28;;;18.60;58.73
75891;BME280;64571;47.512;19.054;2023-04-24T13:13:47;99321.75;;;18.63;58.61
75891;BME280;64571;47.512;19.054;2023-04-24T13:16:49;99321.75;;;18.63;58.69
75891;BME280;64571;47.512;19.054;2023-04-24T13:19:54;99331.28;;;18.55;58.92
75891;BME280;64571;47.512;19.054;2023-04-24T13:22:56;99315.91;;;18.48;59.51
75891;BME280;64571;47.512;19.054;2023-04-24T13:25:59;99312.97;;;18.41;60.22
75891;BME280;64571;47.512;19.054;2023-04-24T13:29:02;99292.25;;;18.27;60.78
75891;BME280;64571;47.512;19.054;2023-04-24T13:32:05;99289.38;;;18.23;61.24
75891;BME280;64571;47.512;19.054;2023-04-24T13:35:08;99287.28;;;18.16;62.03
75891;BME280;64571;47.512;19.054;2023-04-24T13:38:11;99279.75;;;18.01;62.36
75891;BME280;64571;47.512;19.054;2023-04-24T13:41:13;99308.59;;;17.94;63.12
75891;BME280;64571;47.512;19.054;2023-04-24T13:44:20;99302.47;;;17.69;66.14
75891;BME280;64571;47.512;19.054;2023-04-24T13:47:22;99320.34;;;17.38;67.58
75891;BME280;64571;47.512;19.054;2023-04-24T13:50:25;99320.22;;;16.61;73.09
75891;BME280;64571;47.512;19.054;2023-04-24T13:53:28;99321.94;;;16.65;73.48
75891;BME280;64571;47.512;19.054;2023-04-24T13:56:30;99343.13;;;16.63;72.72
75891;BME280;64571;47.512;19.054;2023-04-24T13:59:32;99360.75;;;15.68;76.95
75891;BME280;64571;47.512;19.054;2023-04-24T14:02:35;99350.63;;;15.64;76.72
75891;BME280;64571;47.512;19.054;2023-04-24T14:05:38;99351.06;;;15.66;77.16
75891;BME280;64571;47.512;19.054;2023-04-24T14:08:41;99356.69;;;15.54;77.34
75891;BME280;64571;47.512;19.054;2023-04-24T14:11:43;99364.53;;;15.48;78.28
75891;BME280;64571;47.512;19.054;2023-04-24T14:14:46;99350.38;;;15.29;79.54
75891;BME280;64571;47.512;19.054;2023-04-24T14:17:50;99339.44;;;15.24;80.52
75891;BME280;64571;47.512;19.054;2023-04-24T14:20:52;99361.31;;;15.62;80.98
75891;BME280;64571;47.512;19.054;2023-04-24T14:23:55;99378.09;;;15.74;80.52
75891;BME280;64571;47.512;19.054;2023-04-24T14:26:57;99360.47;;;15.74;80.35
75891;BME280;64571;47.512;19.054;2023-04-24T14:30:00;99367.00;;;15.78;79.36
75891;BME280;64571;47.512;19.054;2023-04-24T14:33:03;99358.44;;;15.86;80.01
75891;BME280;64571;47.512;19.054;2023-04-24T14:36:06;99351.09;;;15.98;77.91
75891;BME280;64571;47.512;19.054;2023-04-24T14:39:08;99360.87;;;16.19;75.91
75891;BME280;64571;47.512;19.054;2023-04-24T14:42:12;99358.63;;;16.25;77.58
75891;BME280;64571;47.512;19.054;2023-04-24T14:45:15;99356.38;;;16.31;76.85
75891;BME280;64571;47.512;19.054;2023-04-24T14:48:18;99359.53;;;16.29;76.18
75891;BME280;64571;47.512;19.054;2023-04-24T14:51:20;99357.34;;;16.38;76.38
75891;BME280;64571;47.512;19.054;2023-04-24T14:54:23;99342.16;;;16.39;76.75
75891;BME280;64571;47.512;19.054;2023-04-24T14:57:25;99343.75;;;16.56;76.38
75891;BME280;64571;47.512;19.054;2023-04-24T15:00:28;99355.44;;;16.74;76.33
75891;BME280;64571;47.512;19.054;2023-04-24T15:03:31;99353.25;;;16.83;76.83
75891;BME280;64571;47.512;19.054;2023-04-24T15:06:34;99359.47;;;16.92;74.57
75891;BME280;64571;47.512;19.054;2023-04-24T15:09:36;99342.81;;;16.84;75.62
75891;BME280;64571;47.512;19.054;2023-04-24T15:12:39;99353.69;;;16.85;74.98
75891;BME280;64571;47.512;19.054;2023-04-24T15:15:41;99333.16;;;16.65;75.67
75891;BME280;64571;47.512;19.054;2023-04-24T15:18:44;99354.00;;;16.80;76.45
75891;BME280;64571;47.512;19.054;2023-04-24T15:21:47;99346.28;;;16.77;74.44
75891;BME280;64571;47.512;19.054;2023-04-24T15:24:49;99348.81;;;16.82;75.03
75891;BME280;64571;47.512;19.054;2023-04-24T15:27:52;99332.81;;;16.67;73.26
75891;BME280;64571;47.512;19.054;2023-04-24T15:30:54;99337.59;;;16.66;73.35
75891;BME280;64571;47.512;19.054;2023-04-24T15:33:57;99339.66;;;16.69;71.92
75891;BME280;64571;47.512;19.054;2023-04-24T15:36:59;99347.84;;;16.59;71.24
75891;BME280;64571;47.512;19.054;2023-04-24T15:40:03;99349.09;;;16.77;70.90
75891;BME280;64571;47.512;19.054;2023-04-24T15:43:07;99361.31;;;16.69;70.98
75891;BME280;64571;47.512;19.054;2023-04-24T15:46:10;99348.81;;;16.82;70.83
75891;BME280;64571;47.512;19.054;2023-04-24T15:49:13;99358.22;;;16.90;70.93
75891;BME280;64571;47.512;19.054;2023-04-24T15:52:15;99345.56;;;16.80;71.97
75891;BME280;64571;47.512;19.054;2023-04-24T15:55:18;99364.56;;;16.71;71.46
75891;BME280;64571;47.512;19.054;2023-04-24T15:58:20;99360.63;;;16.40;71.74
75891;BME280;64571;47.512;19.054;2023-04-24T16:01:23;99368.94;;;16.37;72.39
75891;BME280;64571;47.512;19.054;2023-04-24T16:04:26;99372.62;;;16.25;72.75
75891;BME280;64571;47.512;19.054;2023-04-24T16:07:30;99345.78;;;16.24;73.65